Sumaq Queen — 3EGP3 — position and weather

sailwx.info

Track history (hours):
 
Tides and Currents Weather Stations Pressure Air Temp Water Temp Dewpoint Dewpoint Depression Visibility Wind Speed Wind Dir Waves Ship Positions

Sumaq Queen

Last reported at 2018-May-22 17:33 UTC. Time now 2018-Jun-24 22:07 UTC.
Position N 37°05' E 123°24'.
Warning: this ship's position is 33 days out of date.

Length 183 m; draft 8.8 m.

Type: Cargo ship. MMSI: 374593000.

Date/timePositionNaut miles runAvg speedWind from/ knotsBaromVisibWave heightAir tempDewpointWater temp
2018-May-22 17:33N 37°05' E 123°24'112.6
2018-May-22 17:30N 37°06' E 123°23'612.6
2018-May-22 17:00N 37°12' E 123°21'812.5
2018-May-22 16:22N 37°19' E 123°18'412.4
2018-May-22 16:00N 37°23' E 123°15'  
2018-May-15 05:15N 33°49' E 127°46'411.1
2018-May-15 04:56N 33°50' E 127°50'511.1
2018-May-15 04:30N 33°51' E 127°55'611.2
2018-May-15 04:00N 33°53' E 128°02'611.3
2018-May-15 03:29N 33°54' E 128°09'511.3
2018-May-15 03:00N 33°56' E 128°15'611.4
2018-May-15 02:30N 33°57' E 128°22'611.2
2018-May-15 01:59N 33°59' E 128°28'611.2
2018-May-15 01:30N 34°00' E 128°35'611.3
2018-May-15 01:00N 34°04' E 128°40'4511.9
2018-May-14 21:14N 34°41' E 129°09'311.6
2018-May-14 20:59N 34°44' E 129°11'511.4
2018-May-14 20:30N 34°48' E 129°14'611.5
2018-May-14 20:00N 34°54' E 129°18'611.6
2018-May-14 19:29N 34°58' E 129°22'511.4
2018-May-14 19:00N 35°03' E 129°24'711.6
2018-May-14 18:25N 35°10' E 129°26'  
Track history (hours):
 
Tides and Currents Weather Stations Pressure Air Temp Water Temp Dewpoint Dewpoint Depression Visibility Wind Speed Wind Dir Waves Ship Positions

Sumaq Queen

Last reported at 2018-May-22 17:33 UTC. Time now 2018-Jun-24 22:07 UTC.
Position N 37°05' E 123°24'.
Warning: this ship's position is 33 days out of date.

Length 183 m; draft 8.8 m.

Type: Cargo ship. MMSI: 374593000.

Date/timePositionNaut miles runAvg speedWind from/ knotsBaromVisibWave heightAir tempDewpointWater temp
2018-May-22 17:33N 37°05' E 123°24'112.6
2018-May-22 17:30N 37°06' E 123°23'612.6
2018-May-22 17:00N 37°12' E 123°21'812.5
2018-May-22 16:22N 37°19' E 123°18'412.4
2018-May-22 16:00N 37°23' E 123°15'  
2018-May-15 05:15N 33°49' E 127°46'411.1
2018-May-15 04:56N 33°50' E 127°50'511.1
2018-May-15 04:30N 33°51' E 127°55'611.2
2018-May-15 04:00N 33°53' E 128°02'611.3
2018-May-15 03:29N 33°54' E 128°09'511.3
2018-May-15 03:00N 33°56' E 128°15'611.4
2018-May-15 02:30N 33°57' E 128°22'611.2
2018-May-15 01:59N 33°59' E 128°28'611.2
2018-May-15 01:30N 34°00' E 128°35'611.3
2018-May-15 01:00N 34°04' E 128°40'4511.9
2018-May-14 21:14N 34°41' E 129°09'311.6
2018-May-14 20:59N 34°44' E 129°11'511.4
2018-May-14 20:30N 34°48' E 129°14'611.5
2018-May-14 20:00N 34°54' E 129°18'611.6
2018-May-14 19:29N 34°58' E 129°22'511.4
2018-May-14 19:00N 35°03' E 129°24'711.6
2018-May-14 18:25N 35°10' E 129°26'  

Dump ship's entire track history